sensor_id;sensor_type;location;lat;lon;timestamp;P1;durP1;ratioP1;P2;durP2;ratioP2
31836;SDS011;18401;49.344;6.240;2024-02-21T00:01:26;14.73;;;5.40;;
31836;SDS011;18401;49.344;6.240;2024-02-21T00:03:52;21.08;;;6.30;;
31836;SDS011;18401;49.344;6.240;2024-02-21T00:06:17;17.02;;;7.68;;
31836;SDS011;18401;49.344;6.240;2024-02-21T00:08:43;19.90;;;5.75;;
31836;SDS011;18401;49.344;6.240;2024-02-21T00:11:09;20.33;;;6.15;;
31836;SDS011;18401;49.344;6.240;2024-02-21T00:13:34;15.30;;;6.25;;
31836;SDS011;18401;49.344;6.240;2024-02-21T00:16:00;15.43;;;6.10;;
31836;SDS011;18401;49.344;6.240;2024-02-21T00:18:26;19.75;;;5.85;;
31836;SDS011;18401;49.344;6.240;2024-02-21T00:20:52;13.85;;;5.20;;
31836;SDS011;18401;49.344;6.240;2024-02-21T00:23:18;18.08;;;6.13;;
31836;SDS011;18401;49.344;6.240;2024-02-21T00:25:43;19.27;;;5.57;;
31836;SDS011;18401;49.344;6.240;2024-02-21T00:28:09;17.63;;;5.97;;
31836;SDS011;18401;49.344;6.240;2024-02-21T00:30:35;18.67;;;5.38;;
31836;SDS011;18401;49.344;6.240;2024-02-21T00:33:03;18.05;;;6.35;;
31836;SDS011;18401;49.344;6.240;2024-02-21T00:35:28;16.08;;;4.45;;
31836;SDS011;18401;49.344;6.240;2024-02-21T00:37:54;16.13;;;5.18;;
31836;SDS011;18401;49.344;6.240;2024-02-21T00:40:22;17.10;;;5.20;;
31836;SDS011;18401;49.344;6.240;2024-02-21T00:42:48;12.25;;;5.03;;
31836;SDS011;18401;49.344;6.240;2024-02-21T00:45:14;13.75;;;5.05;;
31836;SDS011;18401;49.344;6.240;2024-02-21T00:47:39;15.57;;;4.88;;
31836;SDS011;18401;49.344;6.240;2024-02-21T00:50:05;20.52;;;5.72;;
31836;SDS011;18401;49.344;6.240;2024-02-21T00:52:32;15.63;;;6.60;;
31836;SDS011;18401;49.344;6.240;2024-02-21T00:54:58;14.18;;;5.25;;
31836;SDS011;18401;49.344;6.240;2024-02-21T00:57:24;16.00;;;5.50;;
31836;SDS011;18401;49.344;6.240;2024-02-21T00:59:51;11.35;;;4.80;;
31836;SDS011;18401;49.344;6.240;2024-02-21T01:02:16;20.02;;;5.18;;
31836;SDS011;18401;49.344;6.240;2024-02-21T01:04:42;14.02;;;4.68;;
31836;SDS011;18401;49.344;6.240;2024-02-21T01:07:08;12.95;;;4.57;;
31836;SDS011;18401;49.344;6.240;2024-02-21T01:09:33;18.35;;;4.70;;
31836;SDS011;18401;49.344;6.240;2024-02-21T01:11:59;16.77;;;4.63;;
31836;SDS011;18401;49.344;6.240;2024-02-21T01:14:25;19.42;;;5.18;;
31836;SDS011;18401;49.344;6.240;2024-02-21T01:16:50;19.30;;;5.15;;
31836;SDS011;18401;49.344;6.240;2024-02-21T01:19:16;14.27;;;4.45;;
31836;SDS011;18401;49.344;6.240;2024-02-21T01:21:42;12.52;;;4.50;;
31836;SDS011;18401;49.344;6.240;2024-02-21T01:24:07;17.98;;;4.63;;
31836;SDS011;18401;49.344;6.240;2024-02-21T01:26:33;16.90;;;5.25;;
31836;SDS011;18401;49.344;6.240;2024-02-21T01:28:59;17.42;;;4.40;;
31836;SDS011;18401;49.344;6.240;2024-02-21T01:31:24;14.32;;;4.68;;
31836;SDS011;18401;49.344;6.240;2024-02-21T01:33:50;20.83;;;4.95;;
31836;SDS011;18401;49.344;6.240;2024-02-21T01:36:16;18.00;;;5.05;;
31836;SDS011;18401;49.344;6.240;2024-02-21T01:38:41;19.35;;;4.55;;
31836;SDS011;18401;49.344;6.240;2024-02-21T01:41:07;20.52;;;4.95;;
31836;SDS011;18401;49.344;6.240;2024-02-21T01:43:32;16.13;;;4.47;;
31836;SDS011;18401;49.344;6.240;2024-02-21T01:45:58;19.73;;;4.75;;
31836;SDS011;18401;49.344;6.240;2024-02-21T01:48:24;15.93;;;4.72;;
31836;SDS011;18401;49.344;6.240;2024-02-21T01:50:50;19.10;;;5.15;;
31836;SDS011;18401;49.344;6.240;2024-02-21T01:53:20;16.55;;;4.90;;
31836;SDS011;18401;49.344;6.240;2024-02-21T01:55:48;23.65;;;4.90;;
31836;SDS011;18401;49.344;6.240;2024-02-21T01:58:14;13.02;;;4.15;;
31836;SDS011;18401;49.344;6.240;2024-02-21T02:00:41;15.40;;;4.72;;
31836;SDS011;18401;49.344;6.240;2024-02-21T02:03:11;9.85;;;4.35;;
31836;SDS011;18401;49.344;6.240;2024-02-21T02:05:47;9.05;;;5.72;;
31836;SDS011;18401;49.344;6.240;2024-02-21T02:08:14;21.70;;;4.88;;
31836;SDS011;18401;49.344;6.240;2024-02-21T02:10:40;23.40;;;5.15;;
31836;SDS011;18401;49.344;6.240;2024-02-21T02:13:06;12.80;;;5.00;;
31836;SDS011;18401;49.344;6.240;2024-02-21T02:15:42;20.48;;;5.30;;
31836;SDS011;18401;49.344;6.240;2024-02-21T02:20:34;20.58;;;4.55;;
31836;SDS011;18401;49.344;6.240;2024-02-21T02:23:00;12.43;;;5.03;;
31836;SDS011;18401;49.344;6.240;2024-02-21T02:25:34;15.18;;;4.55;;
31836;SDS011;18401;49.344;6.240;2024-02-21T02:28:00;13.77;;;4.88;;
31836;SDS011;18401;49.344;6.240;2024-02-21T02:30:26;14.15;;;5.40;;
31836;SDS011;18401;49.344;6.240;2024-02-21T02:32:52;19.00;;;4.85;;
31836;SDS011;18401;49.344;6.240;2024-02-21T02:35:17;16.90;;;5.10;;
31836;SDS011;18401;49.344;6.240;2024-02-21T02:37:49;17.90;;;4.80;;
31836;SDS011;18401;49.344;6.240;2024-02-21T02:40:15;16.05;;;5.10;;
31836;SDS011;18401;49.344;6.240;2024-02-21T02:42:41;16.33;;;5.07;;
31836;SDS011;18401;49.344;6.240;2024-02-21T02:45:07;28.23;;;5.38;;
31836;SDS011;18401;49.344;6.240;2024-02-21T02:47:34;13.70;;;4.88;;
31836;SDS011;18401;49.344;6.240;2024-02-21T02:49:59;16.95;;;5.40;;
31836;SDS011;18401;49.344;6.240;2024-02-21T02:52:25;12.02;;;5.72;;
31836;SDS011;18401;49.344;6.240;2024-02-21T02:54:51;14.30;;;4.88;;
31836;SDS011;18401;49.344;6.240;2024-02-21T02:57:18;13.90;;;4.63;;
31836;SDS011;18401;49.344;6.240;2024-02-21T02:59:52;13.55;;;5.15;;
31836;SDS011;18401;49.344;6.240;2024-02-21T03:02:18;10.60;;;3.95;;
31836;SDS011;18401;49.344;6.240;2024-02-21T03:04:44;20.58;;;4.93;;
31836;SDS011;18401;49.344;6.240;2024-02-21T03:07:09;14.25;;;4.30;;
31836;SDS011;18401;49.344;6.240;2024-02-21T03:09:36;16.63;;;4.00;;
31836;SDS011;18401;49.344;6.240;2024-02-21T03:12:03;13.60;;;5.70;;
31836;SDS011;18401;49.344;6.240;2024-02-21T03:14:29;12.80;;;4.20;;
31836;SDS011;18401;49.344;6.240;2024-02-21T03:16:55;16.45;;;4.70;;
31836;SDS011;18401;49.344;6.240;2024-02-21T03:19:21;9.27;;;3.97;;
31836;SDS011;18401;49.344;6.240;2024-02-21T03:21:47;14.02;;;4.80;;
31836;SDS011;18401;49.344;6.240;2024-02-21T03:24:14;17.38;;;4.53;;
31836;SDS011;18401;49.344;6.240;2024-02-21T03:26:40;17.92;;;5.45;;
31836;SDS011;18401;49.344;6.240;2024-02-21T03:29:06;17.63;;;4.95;;
31836;SDS011;18401;49.344;6.240;2024-02-21T03:31:32;20.67;;;4.95;;
31836;SDS011;18401;49.344;6.240;2024-02-21T03:33:58;24.00;;;6.57;;
31836;SDS011;18401;49.344;6.240;2024-02-21T03:36:23;13.25;;;4.57;;
31836;SDS011;18401;49.344;6.240;2024-02-21T03:38:49;12.23;;;5.15;;
31836;SDS011;18401;49.344;6.240;2024-02-21T03:41:15;17.10;;;4.93;;
31836;SDS011;18401;49.344;6.240;2024-02-21T03:43:40;11.38;;;3.97;;
31836;SDS011;18401;49.344;6.240;2024-02-21T03:46:06;14.68;;;5.28;;
31836;SDS011;18401;49.344;6.240;2024-02-21T03:48:32;20.77;;;6.10;;
31836;SDS011;18401;49.344;6.240;2024-02-21T03:50:58;14.70;;;5.07;;
31836;SDS011;18401;49.344;6.240;2024-02-21T03:53:24;20.58;;;5.10;;
31836;SDS011;18401;49.344;6.240;2024-02-21T03:55:49;23.35;;;5.38;;
31836;SDS011;18401;49.344;6.240;2024-02-21T03:58:15;20.63;;;5.32;;
31836;SDS011;18401;49.344;6.240;2024-02-21T04:00:40;13.48;;;4.82;;
31836;SDS011;18401;49.344;6.240;2024-02-21T04:03:06;14.85;;;5.45;;
31836;SDS011;18401;49.344;6.240;2024-02-21T04:05:32;16.02;;;5.47;;
31836;SDS011;18401;49.344;6.240;2024-02-21T04:07:58;22.17;;;5.72;;
31836;SDS011;18401;49.344;6.240;2024-02-21T04:10:24;16.15;;;4.80;;
31836;SDS011;18401;49.344;6.240;2024-02-21T04:12:49;20.25;;;6.07;;
31836;SDS011;18401;49.344;6.240;2024-02-21T04:15:19;20.10;;;5.72;;
31836;SDS011;18401;49.344;6.240;2024-02-21T04:17:45;15.60;;;4.78;;
31836;SDS011;18401;49.344;6.240;2024-02-21T04:20:15;12.15;;;5.43;;
31836;SDS011;18401;49.344;6.240;2024-02-21T04:22:44;17.55;;;4.90;;
31836;SDS011;18401;49.344;6.240;2024-02-21T04:25:10;20.25;;;5.57;;
31836;SDS011;18401;49.344;6.240;2024-02-21T04:27:36;21.42;;;5.70;;
31836;SDS011;18401;49.344;6.240;2024-02-21T04:30:03;18.15;;;5.00;;
31836;SDS011;18401;49.344;6.240;2024-02-21T04:32:29;10.13;;;4.82;;
31836;SDS011;18401;49.344;6.240;2024-02-21T04:34:55;14.65;;;5.10;;
31836;SDS011;18401;49.344;6.240;2024-02-21T04:37:20;20.17;;;5.40;;
31836;SDS011;18401;49.344;6.240;2024-02-21T04:39:46;16.70;;;5.07;;
31836;SDS011;18401;49.344;6.240;2024-02-21T04:42:13;13.90;;;5.10;;
31836;SDS011;18401;49.344;6.240;2024-02-21T04:44:39;14.32;;;6.03;;
31836;SDS011;18401;49.344;6.240;2024-02-21T04:47:04;10.43;;;4.55;;
31836;SDS011;18401;49.344;6.240;2024-02-21T04:49:30;15.45;;;4.45;;
31836;SDS011;18401;49.344;6.240;2024-02-21T04:51:56;17.52;;;5.03;;
31836;SDS011;18401;49.344;6.240;2024-02-21T04:54:22;16.60;;;4.55;;
31836;SDS011;18401;49.344;6.240;2024-02-21T04:56:47;8.80;;;4.20;;
31836;SDS011;18401;49.344;6.240;2024-02-21T04:59:13;13.85;;;5.13;;
31836;SDS011;18401;49.344;6.240;2024-02-21T05:01:38;11.70;;;4.63;;
31836;SDS011;18401;49.344;6.240;2024-02-21T05:04:05;14.45;;;4.97;;
31836;SDS011;18401;49.344;6.240;2024-02-21T05:06:31;17.75;;;5.05;;
31836;SDS011;18401;49.344;6.240;2024-02-21T05:08:58;13.82;;;5.15;;
31836;SDS011;18401;49.344;6.240;2024-02-21T05:11:24;13.93;;;4.85;;
31836;SDS011;18401;49.344;6.240;2024-02-21T05:13:50;16.15;;;5.82;;
31836;SDS011;18401;49.344;6.240;2024-02-21T05:16:15;16.27;;;5.57;;
31836;SDS011;18401;49.344;6.240;2024-02-21T05:18:41;17.58;;;5.32;;
31836;SDS011;18401;49.344;6.240;2024-02-21T05:21:07;18.70;;;5.47;;
31836;SDS011;18401;49.344;6.240;2024-02-21T05:23:33;9.15;;;4.22;;
31836;SDS011;18401;49.344;6.240;2024-02-21T05:25:59;12.98;;;4.78;;
31836;SDS011;18401;49.344;6.240;2024-02-21T05:28:24;14.65;;;5.20;;
31836;SDS011;18401;49.344;6.240;2024-02-21T05:30:50;14.70;;;5.10;;
31836;SDS011;18401;49.344;6.240;2024-02-21T05:33:16;18.50;;;5.05;;
31836;SDS011;18401;49.344;6.240;2024-02-21T05:35:46;19.90;;;5.35;;
31836;SDS011;18401;49.344;6.240;2024-02-21T05:38:13;25.92;;;7.43;;
31836;SDS011;18401;49.344;6.240;2024-02-21T05:40:39;32.22;;;5.90;;
31836;SDS011;18401;49.344;6.240;2024-02-21T05:43:05;22.92;;;5.07;;
31836;SDS011;18401;49.344;6.240;2024-02-21T05:45:32;17.20;;;5.07;;
31836;SDS011;18401;49.344;6.240;2024-02-21T05:47:57;13.98;;;4.53;;
31836;SDS011;18401;49.344;6.240;2024-02-21T05:50:23;17.27;;;6.30;;
31836;SDS011;18401;49.344;6.240;2024-02-21T05:52:51;25.85;;;5.80;;
31836;SDS011;18401;49.344;6.240;2024-02-21T05:55:18;19.25;;;5.63;;
31836;SDS011;18401;49.344;6.240;2024-02-21T05:57:44;21.67;;;6.20;;
31836;SDS011;18401;49.344;6.240;2024-02-21T06:00:10;24.83;;;5.65;;
31836;SDS011;18401;49.344;6.240;2024-02-21T06:02:35;15.43;;;4.40;;
31836;SDS011;18401;49.344;6.240;2024-02-21T06:05:01;16.40;;;5.00;;
31836;SDS011;18401;49.344;6.240;2024-02-21T06:07:27;20.38;;;5.20;;
31836;SDS011;18401;49.344;6.240;2024-02-21T06:09:52;27.60;;;5.63;;
31836;SDS011;18401;49.344;6.240;2024-02-21T06:12:18;17.48;;;5.47;;
31836;SDS011;18401;49.344;6.240;2024-02-21T06:14:44;12.50;;;5.32;;
31836;SDS011;18401;49.344;6.240;2024-02-21T06:17:10;16.92;;;6.55;;
31836;SDS011;18401;49.344;6.240;2024-02-21T06:19:35;15.07;;;5.57;;
31836;SDS011;18401;49.344;6.240;2024-02-21T06:22:01;19.10;;;5.30;;
31836;SDS011;18401;49.344;6.240;2024-02-21T06:24:32;19.30;;;4.85;;
31836;SDS011;18401;49.344;6.240;2024-02-21T06:26:59;13.70;;;4.95;;
31836;SDS011;18401;49.344;6.240;2024-02-21T06:29:24;16.17;;;5.00;;
31836;SDS011;18401;49.344;6.240;2024-02-21T06:31:50;21.05;;;5.55;;
31836;SDS011;18401;49.344;6.240;2024-02-21T06:34:15;25.00;;;6.15;;
31836;SDS011;18401;49.344;6.240;2024-02-21T06:36:42;12.75;;;5.13;;
31836;SDS011;18401;49.344;6.240;2024-02-21T06:39:07;18.10;;;5.75;;
31836;SDS011;18401;49.344;6.240;2024-02-21T06:41:33;17.08;;;5.72;;
31836;SDS011;18401;49.344;6.240;2024-02-21T06:43:59;16.75;;;5.63;;
31836;SDS011;18401;49.344;6.240;2024-02-21T06:46:25;12.48;;;5.88;;
31836;SDS011;18401;49.344;6.240;2024-02-21T06:48:53;16.80;;;6.25;;
31836;SDS011;18401;49.344;6.240;2024-02-21T06:51:19;16.63;;;5.32;;
31836;SDS011;18401;49.344;6.240;2024-02-21T06:53:44;20.95;;;6.07;;
31836;SDS011;18401;49.344;6.240;2024-02-21T06:56:10;26.08;;;6.25;;
31836;SDS011;18401;49.344;6.240;2024-02-21T06:58:36;18.73;;;5.65;;
31836;SDS011;18401;49.344;6.240;2024-02-21T07:01:01;15.32;;;5.30;;
31836;SDS011;18401;49.344;6.240;2024-02-21T07:03:27;13.60;;;5.18;;
31836;SDS011;18401;49.344;6.240;2024-02-21T07:05:53;18.02;;;5.55;;
31836;SDS011;18401;49.344;6.240;2024-02-21T07:08:18;13.77;;;5.22;;
31836;SDS011;18401;49.344;6.240;2024-02-21T07:10:44;23.67;;;5.22;;
31836;SDS011;18401;49.344;6.240;2024-02-21T07:13:09;19.20;;;6.05;;
31836;SDS011;18401;49.344;6.240;2024-02-21T07:15:35;17.60;;;5.43;;
31836;SDS011;18401;49.344;6.240;2024-02-21T07:18:01;12.63;;;6.22;;
31836;SDS011;18401;49.344;6.240;2024-02-21T07:20:27;17.20;;;5.25;;
31836;SDS011;18401;49.344;6.240;2024-02-21T07:22:53;13.50;;;6.00;;
31836;SDS011;18401;49.344;6.240;2024-02-21T07:25:19;14.70;;;5.85;;
31836;SDS011;18401;49.344;6.240;2024-02-21T07:27:45;22.52;;;5.68;;
31836;SDS011;18401;49.344;6.240;2024-02-21T07:30:10;13.68;;;5.35;;
31836;SDS011;18401;49.344;6.240;2024-02-21T07:32:36;13.57;;;5.75;;
31836;SDS011;18401;49.344;6.240;2024-02-21T07:35:02;12.52;;;5.65;;
31836;SDS011;18401;49.344;6.240;2024-02-21T07:37:28;20.25;;;6.53;;
31836;SDS011;18401;49.344;6.240;2024-02-21T07:39:53;19.23;;;5.97;;
31836;SDS011;18401;49.344;6.240;2024-02-21T07:42:19;20.10;;;5.10;;
31836;SDS011;18401;49.344;6.240;2024-02-21T07:44:45;12.80;;;5.15;;
31836;SDS011;18401;49.344;6.240;2024-02-21T07:47:11;13.73;;;5.78;;
31836;SDS011;18401;49.344;6.240;2024-02-21T07:49:45;13.18;;;5.95;;
31836;SDS011;18401;49.344;6.240;2024-02-21T07:52:11;22.48;;;5.70;;
31836;SDS011;18401;49.344;6.240;2024-02-21T07:54:37;18.33;;;6.30;;
31836;SDS011;18401;49.344;6.240;2024-02-21T07:57:02;12.48;;;5.05;;
31836;SDS011;18401;49.344;6.240;2024-02-21T07:59:29;25.23;;;5.45;;
31836;SDS011;18401;49.344;6.240;2024-02-21T08:01:56;16.60;;;5.78;;
31836;SDS011;18401;49.344;6.240;2024-02-21T08:04:22;20.10;;;5.70;;
31836;SDS011;18401;49.344;6.240;2024-02-21T08:06:54;16.63;;;5.38;;
31836;SDS011;18401;49.344;6.240;2024-02-21T08:09:21;14.93;;;6.10;;
31836;SDS011;18401;49.344;6.240;2024-02-21T08:11:47;12.25;;;5.35;;
31836;SDS011;18401;49.344;6.240;2024-02-21T08:14:13;14.10;;;5.82;;
31836;SDS011;18401;49.344;6.240;2024-02-21T08:16:41;17.00;;;5.53;;
31836;SDS011;18401;49.344;6.240;2024-02-21T08:19:07;16.90;;;5.55;;
31836;SDS011;18401;49.344;6.240;2024-02-21T08:21:33;13.98;;;5.10;;
31836;SDS011;18401;49.344;6.240;2024-02-21T08:23:58;17.35;;;5.47;;
31836;SDS011;18401;49.344;6.240;2024-02-21T08:26:24;14.88;;;5.32;;
31836;SDS011;18401;49.344;6.240;2024-02-21T08:28:52;17.95;;;4.90;;
31836;SDS011;18401;49.344;6.240;2024-02-21T08:31:21;13.73;;;5.50;;
31836;SDS011;18401;49.344;6.240;2024-02-21T08:33:48;19.95;;;4.97;;
31836;SDS011;18401;49.344;6.240;2024-02-21T08:36:17;12.52;;;5.10;;
31836;SDS011;18401;49.344;6.240;2024-02-21T08:38:44;13.98;;;5.43;;
31836;SDS011;18401;49.344;6.240;2024-02-21T08:41:10;15.57;;;4.90;;
31836;SDS011;18401;49.344;6.240;2024-02-21T08:43:36;13.98;;;5.18;;
31836;SDS011;18401;49.344;6.240;2024-02-21T08:46:02;17.88;;;5.95;;
31836;SDS011;18401;49.344;6.240;2024-02-21T08:48:27;18.05;;;5.53;;
31836;SDS011;18401;49.344;6.240;2024-02-21T08:50:53;14.05;;;4.95;;
31836;SDS011;18401;49.344;6.240;2024-02-21T08:53:19;17.50;;;4.70;;
31836;SDS011;18401;49.344;6.240;2024-02-21T08:55:45;17.13;;;4.78;;
31836;SDS011;18401;49.344;6.240;2024-02-21T08:58:11;16.35;;;4.82;;
31836;SDS011;18401;49.344;6.240;2024-02-21T09:00:37;14.48;;;4.65;;
31836;SDS011;18401;49.344;6.240;2024-02-21T09:03:03;17.33;;;5.32;;
31836;SDS011;18401;49.344;6.240;2024-02-21T09:05:29;8.82;;;4.22;;
31836;SDS011;18401;49.344;6.240;2024-02-21T09:07:54;11.18;;;4.55;;
31836;SDS011;18401;49.344;6.240;2024-02-21T09:10:20;17.17;;;5.07;;
31836;SDS011;18401;49.344;6.240;2024-02-21T09:12:46;16.92;;;4.43;;
31836;SDS011;18401;49.344;6.240;2024-02-21T09:15:12;17.88;;;4.70;;
31836;SDS011;18401;49.344;6.240;2024-02-21T09:17:38;10.88;;;4.80;;
31836;SDS011;18401;49.344;6.240;2024-02-21T09:20:04;13.18;;;4.45;;
31836;SDS011;18401;49.344;6.240;2024-02-21T09:22:31;18.48;;;4.75;;
31836;SDS011;18401;49.344;6.240;2024-02-21T09:24:59;14.43;;;4.82;;
31836;SDS011;18401;49.344;6.240;2024-02-21T09:27:25;15.00;;;4.32;;
31836;SDS011;18401;49.344;6.240;2024-02-21T09:29:51;17.73;;;4.32;;
31836;SDS011;18401;49.344;6.240;2024-02-21T09:32:19;16.30;;;4.50;;
31836;SDS011;18401;49.344;6.240;2024-02-21T09:34:45;17.10;;;4.20;;
31836;SDS011;18401;49.344;6.240;2024-02-21T09:37:11;14.48;;;4.35;;
31836;SDS011;18401;49.344;6.240;2024-02-21T09:39:36;9.95;;;4.45;;
31836;SDS011;18401;49.344;6.240;2024-02-21T09:42:05;9.82;;;4.30;;
31836;SDS011;18401;49.344;6.240;2024-02-21T09:44:33;20.08;;;4.63;;
31836;SDS011;18401;49.344;6.240;2024-02-21T09:47:03;25.65;;;5.22;;
31836;SDS011;18401;49.344;6.240;2024-02-21T09:49:32;18.63;;;4.63;;
31836;SDS011;18401;49.344;6.240;2024-02-21T09:52:00;10.10;;;3.75;;
31836;SDS011;18401;49.344;6.240;2024-02-21T09:54:30;16.92;;;4.35;;
31836;SDS011;18401;49.344;6.240;2024-02-21T09:57:02;16.42;;;4.53;;
31836;SDS011;18401;49.344;6.240;2024-02-21T09:59:30;13.18;;;3.95;;
31836;SDS011;18401;49.344;6.240;2024-02-21T10:01:57;12.25;;;4.05;;
31836;SDS011;18401;49.344;6.240;2024-02-21T10:04:25;10.85;;;3.70;;
31836;SDS011;18401;49.344;6.240;2024-02-21T10:06:51;12.45;;;3.75;;
31836;SDS011;18401;49.344;6.240;2024-02-21T10:09:24;15.82;;;4.05;;
31836;SDS011;18401;49.344;6.240;2024-02-21T10:11:54;13.73;;;3.95;;
31836;SDS011;18401;49.344;6.240;2024-02-21T10:14:36;11.98;;;3.63;;
31836;SDS011;18401;49.344;6.240;2024-02-21T10:17:02;11.45;;;4.00;;
31836;SDS011;18401;49.344;6.240;2024-02-21T10:19:30;17.27;;;5.32;;
31836;SDS011;18401;49.344;6.240;2024-02-21T10:22:03;11.65;;;4.15;;
31836;SDS011;18401;49.344;6.240;2024-02-21T10:24:30;9.55;;;4.18;;
31836;SDS011;18401;49.344;6.240;2024-02-21T10:29:32;11.65;;;3.75;;
31836;SDS011;18401;49.344;6.240;2024-02-21T10:32:11;18.00;;;4.07;;
31836;SDS011;18401;49.344;6.240;2024-02-21T10:34:41;10.60;;;3.97;;
31836;SDS011;18401;49.344;6.240;2024-02-21T10:37:08;12.57;;;4.05;;
31836;SDS011;18401;49.344;6.240;2024-02-21T10:39:35;10.73;;;3.00;;
31836;SDS011;18401;49.344;6.240;2024-02-21T10:42:03;21.65;;;4.13;;
31836;SDS011;18401;49.344;6.240;2024-02-21T10:44:30;11.23;;;3.53;;
31836;SDS011;18401;49.344;6.240;2024-02-21T10:47:03;14.45;;;4.07;;
31836;SDS011;18401;49.344;6.240;2024-02-21T10:49:32;11.45;;;3.70;;
31836;SDS011;18401;49.344;6.240;2024-02-21T10:52:14;10.70;;;3.10;;
31836;SDS011;18401;49.344;6.240;2024-02-21T10:54:47;15.55;;;3.70;;
31836;SDS011;18401;49.344;6.240;2024-02-21T10:57:31;12.57;;;3.53;;
31836;SDS011;18401;49.344;6.240;2024-02-21T10:59:58;10.98;;;3.65;;
31836;SDS011;18401;49.344;6.240;2024-02-21T11:02:24;13.43;;;3.38;;
31836;SDS011;18401;49.344;6.240;2024-02-21T11:04:51;10.43;;;3.20;;
31836;SDS011;18401;49.344;6.240;2024-02-21T11:07:19;10.48;;;3.00;;
31836;SDS011;18401;49.344;6.240;2024-02-21T11:09:52;15.82;;;3.72;;
31836;SDS011;18401;49.344;6.240;2024-02-21T11:12:22;11.77;;;3.78;;
31836;SDS011;18401;49.344;6.240;2024-02-21T11:14:48;16.45;;;3.88;;
31836;SDS011;18401;49.344;6.240;2024-02-21T11:17:15;12.50;;;3.70;;
31836;SDS011;18401;49.344;6.240;2024-02-21T11:19:42;11.35;;;3.83;;
31836;SDS011;18401;49.344;6.240;2024-02-21T11:22:17;10.77;;;3.00;;
31836;SDS011;18401;49.344;6.240;2024-02-21T11:24:45;13.27;;;3.95;;
31836;SDS011;18401;49.344;6.240;2024-02-21T11:29:42;16.73;;;4.32;;
31836;SDS011;18401;49.344;6.240;2024-02-21T11:32:14;15.98;;;3.90;;
31836;SDS011;18401;49.344;6.240;2024-02-21T11:34:41;14.85;;;3.83;;
31836;SDS011;18401;49.344;6.240;2024-02-21T11:37:15;14.30;;;3.75;;
31836;SDS011;18401;49.344;6.240;2024-02-21T11:39:41;11.97;;;3.70;;
31836;SDS011;18401;49.344;6.240;2024-02-21T11:42:07;17.50;;;4.05;;
31836;SDS011;18401;49.344;6.240;2024-02-21T11:44:34;13.80;;;3.90;;
31836;SDS011;18401;49.344;6.240;2024-02-21T11:47:03;10.15;;;3.97;;
31836;SDS011;18401;49.344;6.240;2024-02-21T11:49:30;14.15;;;4.20;;
31836;SDS011;18401;49.344;6.240;2024-02-21T11:52:02;10.63;;;3.80;;
31836;SDS011;18401;49.344;6.240;2024-02-21T11:54:31;10.45;;;3.85;;
31836;SDS011;18401;49.344;6.240;2024-02-21T11:56:58;13.48;;;4.47;;
31836;SDS011;18401;49.344;6.240;2024-02-21T11:59:25;11.73;;;4.15;;
31836;SDS011;18401;49.344;6.240;2024-02-21T12:01:50;8.23;;;3.15;;
31836;SDS011;18401;49.344;6.240;2024-02-21T12:04:17;12.98;;;3.88;;
31836;SDS011;18401;49.344;6.240;2024-02-21T12:06:44;11.40;;;3.55;;
31836;SDS011;18401;49.344;6.240;2024-02-21T12:09:14;24.55;;;5.90;;
31836;SDS011;18401;49.344;6.240;2024-02-21T12:11:43;15.50;;;2.97;;
31836;SDS011;18401;49.344;6.240;2024-02-21T12:14:09;9.32;;;3.30;;
31836;SDS011;18401;49.344;6.240;2024-02-21T12:16:35;8.27;;;2.95;;
31836;SDS011;18401;49.344;6.240;2024-02-21T12:19:04;11.13;;;3.22;;
31836;SDS011;18401;49.344;6.240;2024-02-21T12:21:30;12.38;;;3.30;;
31836;SDS011;18401;49.344;6.240;2024-02-21T12:23:58;15.55;;;4.32;;
31836;SDS011;18401;49.344;6.240;2024-02-21T12:26:24;11.05;;;3.25;;
31836;SDS011;18401;49.344;6.240;2024-02-21T12:28:51;12.60;;;4.03;;
31836;SDS011;18401;49.344;6.240;2024-02-21T12:31:18;13.20;;;2.97;;
31836;SDS011;18401;49.344;6.240;2024-02-21T12:33:43;11.18;;;3.38;;
31836;SDS011;18401;49.344;6.240;2024-02-21T12:36:09;6.25;;;3.03;;
31836;SDS011;18401;49.344;6.240;2024-02-21T12:38:35;9.50;;;2.83;;
31836;SDS011;18401;49.344;6.240;2024-02-21T12:41:01;13.57;;;2.83;;
31836;SDS011;18401;49.344;6.240;2024-02-21T12:43:28;7.78;;;3.13;;
31836;SDS011;18401;49.344;6.240;2024-02-21T12:45:54;17.50;;;3.42;;
31836;SDS011;18401;49.344;6.240;2024-02-21T12:48:19;11.93;;;2.90;;
31836;SDS011;18401;49.344;6.240;2024-02-21T12:50:48;8.90;;;3.25;;
31836;SDS011;18401;49.344;6.240;2024-02-21T12:53:16;8.98;;;2.75;;
31836;SDS011;18401;49.344;6.240;2024-02-21T12:55:43;10.27;;;3.33;;
31836;SDS011;18401;49.344;6.240;2024-02-21T12:58:10;10.43;;;3.30;;
31836;SDS011;18401;49.344;6.240;2024-02-21T13:00:35;14.48;;;3.30;;
31836;SDS011;18401;49.344;6.240;2024-02-21T13:03:02;9.75;;;2.55;;
31836;SDS011;18401;49.344;6.240;2024-02-21T13:05:28;11.52;;;2.70;;
31836;SDS011;18401;49.344;6.240;2024-02-21T13:07:54;9.40;;;2.92;;
31836;SDS011;18401;49.344;6.240;2024-02-21T13:10:19;17.33;;;3.55;;
31836;SDS011;18401;49.344;6.240;2024-02-21T13:12:46;8.15;;;2.95;;
31836;SDS011;18401;49.344;6.240;2024-02-21T13:15:12;10.73;;;3.42;;
31836;SDS011;18401;49.344;6.240;2024-02-21T13:17:37;6.70;;;2.13;;
31836;SDS011;18401;49.344;6.240;2024-02-21T13:20:04;6.72;;;2.28;;
31836;SDS011;18401;49.344;6.240;2024-02-21T13:22:30;8.13;;;2.75;;
31836;SDS011;18401;49.344;6.240;2024-02-21T13:24:56;11.20;;;2.75;;
31836;SDS011;18401;49.344;6.240;2024-02-21T13:27:22;11.23;;;2.72;;
31836;SDS011;18401;49.344;6.240;2024-02-21T13:29:48;9.45;;;2.60;;
31836;SDS011;18401;49.344;6.240;2024-02-21T13:32:13;9.38;;;3.00;;
31836;SDS011;18401;49.344;6.240;2024-02-21T13:34:40;9.57;;;2.95;;
31836;SDS011;18401;49.344;6.240;2024-02-21T13:37:07;6.97;;;3.03;;
31836;SDS011;18401;49.344;6.240;2024-02-21T13:39:34;10.30;;;2.10;;
31836;SDS011;18401;49.344;6.240;2024-02-21T13:42:01;6.80;;;2.45;;
31836;SDS011;18401;49.344;6.240;2024-02-21T13:44:27;5.75;;;2.55;;
31836;SDS011;18401;49.344;6.240;2024-02-21T13:46:53;6.63;;;2.30;;
31836;SDS011;18401;49.344;6.240;2024-02-21T13:49:19;12.18;;;2.53;;
31836;SDS011;18401;49.344;6.240;2024-02-21T13:51:45;14.80;;;3.03;;
31836;SDS011;18401;49.344;6.240;2024-02-21T13:54:10;18.33;;;2.95;;
31836;SDS011;18401;49.344;6.240;2024-02-21T13:56:39;6.75;;;2.47;;
31836;SDS011;18401;49.344;6.240;2024-02-21T13:59:05;9.55;;;2.92;;
31836;SDS011;18401;49.344;6.240;2024-02-21T14:01:30;8.50;;;2.45;;
31836;SDS011;18401;49.344;6.240;2024-02-21T14:04:00;6.18;;;2.40;;
31836;SDS011;18401;49.344;6.240;2024-02-21T14:06:26;6.60;;;2.58;;
31836;SDS011;18401;49.344;6.240;2024-02-21T14:08:52;6.50;;;2.40;;
31836;SDS011;18401;49.344;6.240;2024-02-21T14:11:18;9.60;;;2.78;;
31836;SDS011;18401;49.344;6.240;2024-02-21T14:13:43;9.10;;;3.08;;
31836;SDS011;18401;49.344;6.240;2024-02-21T14:16:10;18.08;;;2.55;;
31836;SDS011;18401;49.344;6.240;2024-02-21T14:18:39;10.32;;;2.65;;
31836;SDS011;18401;49.344;6.240;2024-02-21T14:21:08;11.13;;;2.55;;
31836;SDS011;18401;49.344;6.240;2024-02-21T14:23:37;8.93;;;2.83;;
31836;SDS011;18401;49.344;6.240;2024-02-21T14:26:03;10.35;;;2.75;;
31836;SDS011;18401;49.344;6.240;2024-02-21T14:28:29;9.80;;;2.90;;
31836;SDS011;18401;49.344;6.240;2024-02-21T14:30:55;8.45;;;2.80;;
31836;SDS011;18401;49.344;6.240;2024-02-21T14:33:26;7.90;;;2.75;;
31836;SDS011;18401;49.344;6.240;2024-02-21T14:35:52;11.00;;;3.20;;
31836;SDS011;18401;49.344;6.240;2024-02-21T14:38:18;7.90;;;3.50;;
31836;SDS011;18401;49.344;6.240;2024-02-21T14:40:44;9.85;;;2.80;;